createdAt,value
2024-05-09T00:00:56.140Z,1014.65
2024-05-09T00:01:56.159Z,1014.66
2024-05-09T00:02:56.121Z,1014.67
2024-05-09T00:03:56.120Z,1014.67
2024-05-09T00:04:56.181Z,1014.66
2024-05-09T00:05:56.157Z,1014.66
2024-05-09T00:06:56.044Z,1014.66
2024-05-09T00:07:56.065Z,1014.65
2024-05-09T00:08:56.051Z,1014.64
2024-05-09T00:09:56.033Z,1014.62
2024-05-09T00:10:56.084Z,1014.61
2024-05-09T00:11:56.055Z,1014.62
2024-05-09T00:12:55.978Z,1014.61
2024-05-09T00:13:56.021Z,1014.62
2024-05-09T00:14:55.968Z,1014.63
2024-05-09T00:15:55.978Z,1014.64
2024-05-09T00:16:55.975Z,1014.65
2024-05-09T00:17:56.387Z,1014.66
2024-05-09T00:18:56.058Z,1014.67
2024-05-09T00:19:55.931Z,1014.68
2024-05-09T00:20:56.018Z,1014.69
2024-05-09T00:21:55.876Z,1014.70
2024-05-09T00:22:55.947Z,1014.71
2024-05-09T00:23:55.858Z,1014.71
2024-05-09T00:24:55.864Z,1014.71
2024-05-09T00:25:55.876Z,1014.71
2024-05-09T00:26:55.851Z,1014.71
2024-05-09T00:27:55.834Z,1014.70
2024-05-09T00:28:55.849Z,1014.69
2024-05-09T00:29:55.790Z,1014.69
2024-05-09T00:30:55.793Z,1014.69
2024-05-09T00:31:55.878Z,1014.69
2024-05-09T00:32:55.860Z,1014.69
2024-05-09T00:33:55.995Z,1014.69
2024-05-09T00:34:55.795Z,1014.68
2024-05-09T00:35:55.789Z,1014.66
2024-05-09T00:36:55.779Z,1014.65
2024-05-09T00:37:55.793Z,1014.63
2024-05-09T00:38:55.692Z,1014.63
2024-05-09T00:39:55.693Z,1014.62
2024-05-09T00:40:55.686Z,1014.63
2024-05-09T00:41:55.668Z,1014.63
2024-05-09T00:42:55.679Z,1014.62
2024-05-09T00:43:55.712Z,1014.61
2024-05-09T00:44:55.637Z,1014.58
2024-05-09T00:45:55.622Z,1014.57
2024-05-09T00:46:55.666Z,1014.56
2024-05-09T00:47:55.792Z,1014.55
2024-05-09T00:49:01.794Z,1014.55
2024-05-09T00:49:55.580Z,1014.56
2024-05-09T00:50:55.629Z,1014.57
2024-05-09T00:51:55.571Z,1014.56
2024-05-09T00:52:55.653Z,1014.56
2024-05-09T00:53:55.554Z,1014.56
2024-05-09T00:54:55.540Z,1014.56
2024-05-09T00:55:55.569Z,1014.56
2024-05-09T00:56:55.509Z,1014.56
2024-05-09T00:57:55.509Z,1014.55
2024-05-09T00:58:55.570Z,1014.54
2024-05-09T00:59:55.471Z,1014.53
2024-05-09T01:00:55.520Z,1014.53
2024-05-09T01:01:55.560Z,1014.53
2024-05-09T01:02:55.608Z,1014.52
2024-05-09T01:03:55.640Z,1014.51
2024-05-09T01:04:55.696Z,1014.51
2024-05-09T01:05:55.560Z,1014.51
2024-05-09T01:06:55.405Z,1014.51
2024-05-09T01:07:55.424Z,1014.52
2024-05-09T01:08:55.370Z,1014.53
2024-05-09T01:09:55.350Z,1014.54
2024-05-09T01:10:55.488Z,1014.54
2024-05-09T01:11:55.485Z,1014.54
2024-05-09T01:12:55.328Z,1014.53
2024-05-09T01:13:55.355Z,1014.53
2024-05-09T01:14:55.351Z,1014.52
2024-05-09T01:15:55.303Z,1014.52
2024-05-09T01:16:55.381Z,1014.51
2024-05-09T01:17:55.745Z,1014.52
2024-05-09T01:18:55.543Z,1014.52
2024-05-09T01:19:55.255Z,1014.54
2024-05-09T01:20:55.287Z,1014.56
2024-05-09T01:21:55.252Z,1014.57
2024-05-09T01:22:55.270Z,1014.58
2024-05-09T01:23:55.228Z,1014.58
2024-05-09T01:24:55.205Z,1014.57
2024-05-09T01:25:55.250Z,1014.55
2024-05-09T01:26:55.196Z,1014.55
2024-05-09T01:27:55.166Z,1014.55
2024-05-09T01:28:55.255Z,1014.55
2024-05-09T01:29:55.170Z,1014.55
2024-05-09T06:00:54.244Z,1015.08
2024-05-09T06:01:54.733Z,1015.07
2024-05-09T06:02:54.717Z,1015.07
2024-05-09T06:03:54.666Z,1015.07
2024-05-09T06:04:54.708Z,1015.05
2024-05-09T06:05:54.693Z,1015.04
2024-05-09T06:06:54.621Z,1015.05
2024-05-09T06:07:54.603Z,1015.04
2024-05-09T06:08:54.580Z,1015.05
2024-05-09T06:09:54.545Z,1015.04
2024-05-09T06:10:54.633Z,1015.03
2024-05-09T06:11:54.717Z,1015.03
2024-05-09T06:12:54.509Z,1015.03
2024-05-09T06:13:54.548Z,1015.03
2024-05-09T06:14:54.491Z,1015.02
2024-05-09T06:15:54.498Z,1015.01
2024-05-09T06:16:57.697Z,1015.01
2024-05-09T06:17:54.735Z,1015.01
2024-05-09T06:18:54.925Z,1015.02
2024-05-09T06:19:54.555Z,1015.03
2024-05-09T06:20:54.484Z,1015.03
2024-05-09T06:21:54.431Z,1015.02
2024-05-09T06:22:54.446Z,1015.03
2024-05-09T06:23:54.412Z,1015.04
2024-05-09T06:24:54.410Z,1015.05
2024-05-09T06:25:54.438Z,1015.05
2024-05-09T06:26:54.360Z,1015.05
2024-05-09T06:27:54.357Z,1015.06
2024-05-09T06:28:54.394Z,1015.07
2024-05-09T06:29:54.329Z,1015.07
2024-05-09T06:30:54.312Z,1015.08
2024-05-09T06:31:55.899Z,1015.08
2024-05-09T06:32:54.380Z,1015.09
2024-05-09T06:33:54.425Z,1015.10
2024-05-09T06:34:54.351Z,1015.09
2024-05-09T06:35:54.261Z,1015.09
2024-05-09T06:36:54.256Z,1015.09
2024-05-09T06:37:54.305Z,1015.09
2024-05-09T06:38:54.271Z,1015.08
2024-05-09T06:39:54.246Z,1015.07
2024-05-09T06:40:54.278Z,1015.07
2024-05-09T06:41:54.226Z,1015.06
2024-05-09T06:42:54.187Z,1015.06
2024-05-09T06:43:54.231Z,1015.05
2024-05-09T06:44:54.175Z,1015.05
2024-05-09T06:45:54.183Z,1015.06
2024-05-09T06:46:57.069Z,1015.06
2024-05-09T06:47:54.357Z,1015.06
2024-05-09T06:48:54.449Z,1015.05
2024-05-09T06:49:54.127Z,1015.06
2024-05-09T06:50:54.177Z,1015.05
2024-05-09T06:51:54.128Z,1015.05
2024-05-09T06:52:54.109Z,1015.06
2024-05-09T06:53:54.089Z,1015.06
2024-05-09T06:54:54.058Z,1015.06
2024-05-09T06:55:54.117Z,1015.07
2024-05-09T06:56:54.061Z,1015.07
2024-05-09T06:57:54.083Z,1015.08
2024-05-09T06:58:54.052Z,1015.09
2024-05-09T06:59:54.007Z,1015.11
2024-05-09T07:00:54.068Z,1015.12
2024-05-09T07:01:54.012Z,1015.13
2024-05-09T07:02:54.022Z,1015.15
2024-05-09T07:03:54.182Z,1015.15
2024-05-09T07:05:00.047Z,1015.15
2024-05-09T07:08:20.574Z,1015.14
2024-05-09T07:09:22.312Z,1015.14
2024-05-09T07:10:28.883Z,1015.14
2024-05-09T07:11:21.562Z,1015.14
2024-05-09T07:12:21.525Z,1015.14
2024-05-09T07:13:21.460Z,1015.14
2024-05-09T07:14:21.508Z,1015.14
2024-05-09T07:15:21.433Z,1015.15
2024-05-09T07:16:21.428Z,1015.16
2024-05-09T07:17:21.944Z,1015.17
2024-05-09T07:18:21.630Z,1015.17
2024-05-09T07:19:21.456Z,1015.16
2024-05-09T07:20:31.640Z,1015.16
2024-05-09T07:21:21.372Z,1015.15
2024-05-09T07:22:21.373Z,1015.14
2024-05-09T07:23:21.416Z,1015.13
2024-05-09T07:24:21.324Z,1015.13
2024-05-09T07:25:21.334Z,1015.13
2024-05-09T07:26:21.371Z,1015.13
2024-05-09T07:27:21.304Z,1015.12
2024-05-09T07:28:21.388Z,1015.11
2024-05-09T07:29:21.330Z,1015.10
2024-05-09T07:30:27.559Z,1015.08
2024-05-09T07:31:21.265Z,1015.07
2024-05-09T07:32:21.370Z,1015.07
2024-05-09T07:33:23.020Z,1015.05
2024-05-09T07:34:21.518Z,1015.05
2024-05-09T07:35:21.235Z,1015.05
2024-05-09T07:36:21.210Z,1015.03
2024-05-09T07:37:21.184Z,1015.03
2024-05-09T07:38:21.248Z,1015.02
2024-05-09T07:39:21.162Z,1015.01
2024-05-09T07:40:31.820Z,1015.01
2024-05-09T07:41:21.219Z,1015.01
2024-05-09T07:42:21.140Z,1015.01
2024-05-09T07:43:21.117Z,1015.00
2024-05-09T07:44:21.144Z,1015.01
2024-05-09T07:45:40.117Z,1015.00
2024-05-09T07:48:32.070Z,1014.99
2024-05-09T07:52:22.626Z,1014.99
2024-05-09T07:53:42.055Z,1014.98
2024-05-09T07:53:53.378Z,1014.96
2024-05-09T07:54:44.959Z,1014.95
2024-05-09T07:55:44.830Z,1014.94
2024-05-09T07:56:44.878Z,1014.93
2024-05-09T07:57:44.779Z,1014.92
2024-05-09T07:58:44.759Z,1014.91
2024-05-09T07:59:44.751Z,1014.92
2024-05-09T08:00:44.875Z,1014.92
2024-05-09T08:01:44.777Z,1014.92
2024-05-09T08:02:44.740Z,1014.92
2024-05-09T08:03:44.949Z,1014.93
2024-05-09T08:04:44.780Z,1014.94
2024-05-09T08:05:44.731Z,1014.94
2024-05-09T08:06:44.691Z,1014.94
2024-05-09T08:07:44.635Z,1014.93
2024-05-09T08:08:44.640Z,1014.93
2024-05-09T08:09:44.658Z,1014.93
2024-05-09T08:10:44.803Z,1014.92
2024-05-09T08:11:44.633Z,1014.92
2024-05-09T08:12:44.619Z,1014.92
2024-05-09T08:13:44.586Z,1014.92
2024-05-09T08:14:44.582Z,1014.94
2024-05-09T08:15:44.740Z,1014.92
2024-05-09T08:16:44.531Z,1014.92
2024-05-09T08:17:44.626Z,1014.93
2024-05-09T08:18:44.637Z,1014.95
2024-05-09T08:19:44.594Z,1014.94
2024-05-09T08:20:44.499Z,1014.95
2024-05-09T08:21:44.541Z,1014.94
2024-05-09T08:22:44.487Z,1014.94
2024-05-09T08:23:44.448Z,1014.93
2024-05-09T08:24:44.473Z,1014.94
2024-05-09T08:25:44.519Z,1014.92
2024-05-09T08:26:44.430Z,1014.91
2024-05-09T08:27:44.480Z,1014.91
2024-05-09T08:28:44.404Z,1014.89
2024-05-09T08:29:44.486Z,1014.87
2024-05-09T08:30:44.678Z,1014.86
2024-05-09T08:31:44.592Z,1014.85
2024-05-09T08:32:44.490Z,1014.83
2024-05-09T08:33:44.687Z,1014.82
2024-05-09T08:34:44.423Z,1014.80
2024-05-09T08:35:44.360Z,1014.78
2024-05-09T08:36:44.345Z,1014.77
2024-05-09T08:37:44.377Z,1014.76
2024-05-09T08:38:44.313Z,1014.75
2024-05-09T08:39:44.347Z,1014.74
2024-05-09T08:40:44.548Z,1014.74
2024-05-09T08:41:44.285Z,1014.73
2024-05-09T08:42:44.309Z,1014.75
2024-05-09T08:43:44.315Z,1014.71
2024-05-09T08:44:44.232Z,1014.71
2024-05-09T08:45:45.366Z,1014.69
2024-05-09T08:46:44.245Z,1014.68
2024-05-09T08:47:44.322Z,1014.68
2024-05-09T08:48:44.516Z,1014.69
2024-05-09T08:49:44.215Z,1014.68
2024-05-09T08:50:45.405Z,1014.67
2024-05-09T08:51:44.237Z,1014.66
2024-05-09T08:52:44.161Z,1014.64
2024-05-09T08:53:44.149Z,1014.62
2024-05-09T08:54:44.207Z,1014.61
2024-05-09T08:55:44.623Z,1014.62
2024-05-09T08:56:44.097Z,1014.63
2024-05-09T08:57:44.163Z,1014.63
2024-05-09T08:58:44.090Z,1014.65
2024-05-09T08:59:44.084Z,1014.66
2024-05-09T09:00:44.334Z,1014.67
2024-05-09T09:01:44.221Z,1014.66
2024-05-09T09:02:44.387Z,1014.67
2024-05-09T09:03:44.257Z,1014.66
2024-05-09T09:04:44.183Z,1014.67
2024-05-09T09:05:44.110Z,1014.68
2024-05-09T09:06:44.175Z,1014.64
2024-05-09T09:07:43.993Z,1014.66
2024-05-09T09:08:44.005Z,1014.63
2024-05-09T09:09:44.075Z,1014.62
2024-05-09T09:10:44.125Z,1014.60
2024-05-09T09:11:43.990Z,1014.59
2024-05-09T09:12:43.980Z,1014.59
2024-05-09T09:13:43.930Z,1014.59
2024-05-09T09:14:43.962Z,1014.59
2024-05-09T09:15:43.955Z,1014.58
2024-05-09T09:16:43.911Z,1014.57
2024-05-09T09:17:44.022Z,1014.56
2024-05-09T09:18:44.175Z,1014.58
2024-05-09T09:19:43.954Z,1014.55
2024-05-09T09:20:44.038Z,1014.55
2024-05-09T09:21:43.932Z,1014.54
2024-05-09T09:22:43.828Z,1014.55
2024-05-09T09:23:43.832Z,1014.53
2024-05-09T09:24:44.612Z,1014.53
2024-05-09T09:25:43.847Z,1014.52
2024-05-09T09:26:43.786Z,1014.50
2024-05-09T09:27:43.788Z,1014.52
2024-05-09T09:28:43.755Z,1014.51
2024-05-09T09:29:43.756Z,1014.51
2024-05-09T09:30:43.783Z,1014.52
2024-05-09T09:31:43.743Z,1014.51
2024-05-09T09:32:43.808Z,1014.52
2024-05-09T09:33:43.939Z,1014.51
2024-05-09T09:34:43.789Z,1014.54
2024-05-09T09:35:43.703Z,1014.52
2024-05-09T09:36:43.762Z,1014.52
2024-05-09T09:37:43.669Z,1014.51
2024-05-09T09:38:43.678Z,1014.50
2024-05-09T09:39:43.704Z,1014.48
2024-05-09T09:40:48.268Z,1014.49
2024-05-09T09:41:43.635Z,1014.50
2024-05-09T09:42:43.655Z,1014.47
2024-05-09T09:43:43.608Z,1014.47
2024-05-09T09:44:47.877Z,1014.41
2024-05-09T09:45:43.850Z,1014.43
2024-05-09T09:46:43.578Z,1014.47
2024-05-09T09:47:43.792Z,1014.45
2024-05-09T09:48:43.656Z,1014.47
2024-05-09T09:49:43.644Z,1014.48
2024-05-09T09:50:43.538Z,1014.46
2024-05-09T09:51:43.651Z,1014.42
2024-05-09T09:52:43.494Z,1014.41
2024-05-09T09:53:43.534Z,1014.41
2024-05-09T09:54:43.540Z,1014.40
2024-05-09T09:55:43.479Z,1014.39
2024-05-09T09:56:43.457Z,1014.38
2024-05-09T09:57:43.521Z,1014.39
2024-05-09T09:58:43.446Z,1014.37
2024-05-09T09:59:43.437Z,1014.33
2024-05-09T10:00:43.740Z,1014.32
2024-05-09T10:01:43.502Z,1014.34
2024-05-09T10:02:43.426Z,1014.33
2024-05-09T10:03:44.420Z,1014.34
2024-05-09T10:04:44.916Z,1014.33
2024-05-09T10:05:46.295Z,1014.31
2024-05-09T10:06:43.395Z,1014.31
2024-05-09T10:07:43.435Z,1014.35
2024-05-09T10:08:43.393Z,1014.33
2024-05-09T10:09:43.359Z,1014.34
2024-05-09T10:10:43.405Z,1014.32
2024-05-09T10:11:49.095Z,1014.35
2024-05-09T10:12:43.314Z,1014.34
2024-05-09T10:13:43.300Z,1014.41
2024-05-09T10:14:43.257Z,1014.37
2024-05-09T10:15:43.344Z,1014.35
2024-05-09T10:16:43.257Z,1014.35
2024-05-09T10:17:43.461Z,1014.39
2024-05-09T10:18:43.440Z,1014.36
2024-05-09T10:19:43.342Z,1014.35
2024-05-09T10:20:43.206Z,1014.35
2024-05-09T10:21:43.221Z,1014.33
2024-05-09T10:22:43.186Z,1014.33
2024-05-09T10:23:43.209Z,1014.31
2024-05-09T10:24:43.259Z,1014.29
2024-05-09T10:25:43.153Z,1014.24
2024-05-09T10:26:43.130Z,1014.26
2024-05-09T10:27:43.148Z,1014.25
2024-05-09T10:28:43.136Z,1014.20
2024-05-09T10:29:43.122Z,1014.22
2024-05-09T10:30:43.379Z,1014.21
2024-05-09T10:31:43.128Z,1014.20
2024-05-09T10:32:43.188Z,1014.22
2024-05-09T10:33:58.040Z,1014.22
2024-05-09T10:34:55.356Z,1014.21
2024-05-09T10:35:43.039Z,1014.16
2024-05-09T10:36:43.119Z,1014.20
2024-05-09T10:37:43.094Z,1014.17
2024-05-09T10:38:43.030Z,1014.22
2024-05-09T10:39:43.074Z,1014.19
2024-05-09T10:40:43.021Z,1014.18
2024-05-09T10:41:42.988Z,1014.15
2024-05-09T10:42:43.058Z,1014.14
2024-05-09T10:43:42.964Z,1014.11
2024-05-09T10:44:42.955Z,1014.13
2024-05-09T10:45:42.950Z,1014.12
2024-05-09T10:46:42.956Z,1014.12
2024-05-09T10:47:43.134Z,1014.11
2024-05-09T10:48:43.164Z,1014.07
2024-05-09T10:49:42.906Z,1014.03
2024-05-09T10:50:42.938Z,1014.03
2024-05-09T10:51:42.918Z,1014.01
2024-05-09T10:52:42.874Z,1014.01
2024-05-09T10:53:42.897Z,1014.01
2024-05-09T10:54:42.887Z,1013.96
2024-05-09T10:55:42.837Z,1013.95
2024-05-09T10:56:42.806Z,1013.97
2024-05-09T10:57:42.849Z,1013.97
2024-05-09T10:58:42.871Z,1013.93
2024-05-09T10:59:42.816Z,1013.92
2024-05-09T11:00:42.954Z,1013.90
2024-05-09T11:01:42.970Z,1013.91
2024-05-09T11:02:43.129Z,1013.91
2024-05-09T11:03:43.246Z,1013.93
2024-05-09T11:04:42.909Z,1013.91
2024-05-09T11:05:43.694Z,1013.90
2024-05-09T11:06:42.750Z,1013.82
2024-05-09T11:07:42.779Z,1013.85
2024-05-09T11:08:42.825Z,1013.86
2024-05-09T11:09:42.814Z,1013.89
2024-05-09T11:10:42.790Z,1013.87
2024-05-09T11:11:42.743Z,1013.87
2024-05-09T11:12:42.733Z,1013.84
2024-05-09T11:13:42.630Z,1013.86
2024-05-09T11:14:42.701Z,1013.86
2024-05-09T11:15:42.727Z,1013.86
2024-05-09T11:16:42.625Z,1013.84
2024-05-09T11:17:42.671Z,1013.82
2024-05-09T11:18:42.775Z,1013.82
2024-05-09T11:19:42.752Z,1013.82
2024-05-09T11:20:42.722Z,1013.77
2024-05-09T11:21:42.734Z,1013.78
2024-05-09T11:22:42.584Z,1013.82
2024-05-09T11:23:42.544Z,1013.78
2024-05-09T11:24:42.594Z,1013.78
2024-05-09T11:25:42.549Z,1013.77
2024-05-09T11:26:42.532Z,1013.75
2024-05-09T11:27:42.534Z,1013.73
2024-05-09T11:28:42.534Z,1013.67
2024-05-09T11:29:42.454Z,1013.71
2024-05-09T11:30:42.510Z,1013.69
2024-05-09T11:31:42.506Z,1013.66
2024-05-09T11:32:42.554Z,1013.67
2024-05-09T11:33:42.574Z,1013.64
2024-05-09T11:34:42.526Z,1013.66
2024-05-09T11:35:42.403Z,1013.62
2024-05-09T11:36:42.466Z,1013.67
2024-05-09T11:37:42.366Z,1013.66
2024-05-09T11:38:42.370Z,1013.64
2024-05-09T11:39:42.392Z,1013.62
2024-05-09T11:40:42.508Z,1013.61
2024-05-09T11:41:42.338Z,1013.60
2024-05-09T11:42:42.346Z,1013.55
2024-05-09T11:43:42.317Z,1013.53
2024-05-09T11:44:42.310Z,1013.51
2024-05-09T11:45:42.330Z,1013.52
2024-05-09T11:46:42.329Z,1013.49
2024-05-09T11:47:42.456Z,1013.46
2024-05-09T11:48:42.526Z,1013.47
2024-05-09T11:49:42.417Z,1013.46
2024-05-09T11:50:42.318Z,1013.43
2024-05-09T11:51:42.258Z,1013.44
2024-05-09T11:52:42.355Z,1013.43
2024-05-09T11:53:42.200Z,1013.41
2024-05-09T11:54:42.260Z,1013.37
2024-05-09T11:55:42.177Z,1013.37
2024-05-09T11:56:42.229Z,1013.38
2024-05-09T11:57:42.314Z,1013.34
2024-05-09T11:58:42.197Z,1013.34
2024-05-09T11:59:42.171Z,1013.38
2024-05-09T12:00:42.313Z,1013.33
2024-05-09T12:01:42.228Z,1013.31
2024-05-09T12:02:42.374Z,1013.31
2024-05-09T12:03:42.335Z,1013.30
2024-05-09T12:04:43.027Z,1013.31
2024-05-09T12:05:42.278Z,1013.30
2024-05-09T12:06:42.189Z,1013.29
2024-05-09T12:07:42.112Z,1013.27
2024-05-09T12:08:42.078Z,1013.23
2024-05-09T12:09:42.096Z,1013.23
2024-05-09T12:10:42.408Z,1013.22
2024-05-09T12:11:42.072Z,1013.19
2024-05-09T12:12:42.021Z,1013.20
2024-05-09T12:13:41.991Z,1013.21
2024-05-09T12:14:41.993Z,1013.20
2024-05-09T12:15:42.014Z,1013.21
2024-05-09T12:16:42.076Z,1013.21
2024-05-09T12:17:42.021Z,1013.23
2024-05-09T12:18:42.053Z,1013.19
2024-05-09T12:19:41.962Z,1013.17
2024-05-09T12:20:41.928Z,1013.15
2024-05-09T12:21:41.915Z,1013.12
2024-05-09T12:22:41.914Z,1013.13
2024-05-09T12:23:41.878Z,1013.13
2024-05-09T12:24:41.944Z,1013.11
2024-05-09T12:25:41.877Z,1013.10
2024-05-09T12:26:41.856Z,1013.11
2024-05-09T12:27:41.911Z,1013.12
2024-05-09T12:28:41.844Z,1013.12
2024-05-09T12:29:41.850Z,1013.10
2024-05-09T12:30:42.152Z,1013.08
2024-05-09T12:31:41.815Z,1013.08
2024-05-09T12:32:41.878Z,1013.08
2024-05-09T12:33:41.842Z,1013.08
2024-05-09T12:34:41.877Z,1013.07
2024-05-09T12:35:44.359Z,1013.08
2024-05-09T12:36:41.837Z,1013.08
2024-05-09T12:37:41.728Z,1013.11
2024-05-09T12:38:41.742Z,1013.12
2024-05-09T12:39:41.769Z,1013.09
2024-05-09T12:40:41.916Z,1013.07
2024-05-09T12:41:41.750Z,1013.04
2024-05-09T12:42:41.866Z,1013.02
2024-05-09T12:43:41.753Z,1013.00
2024-05-09T12:44:41.786Z,1012.96
2024-05-09T12:45:41.728Z,1012.94
2024-05-09T12:46:41.717Z,1012.93
2024-05-09T12:47:41.719Z,1012.95
2024-05-09T12:48:41.809Z,1012.97
2024-05-09T12:49:41.678Z,1012.95
2024-05-09T12:50:42.078Z,1012.93
2024-05-09T12:51:41.621Z,1012.93
2024-05-09T12:52:41.612Z,1012.97
2024-05-09T12:53:41.592Z,1012.96
2024-05-09T12:54:41.599Z,1012.94
2024-05-09T12:55:48.653Z,1012.93
2024-05-09T12:56:41.535Z,1012.91
2024-05-09T12:57:41.563Z,1012.89
2024-05-09T12:58:42.452Z,1012.86
2024-05-09T12:59:41.523Z,1012.82
2024-05-09T13:00:41.644Z,1012.82
2024-05-09T13:01:41.560Z,1012.79
2024-05-09T13:02:41.674Z,1012.82
2024-05-09T13:03:41.624Z,1012.76
2024-05-09T13:04:41.538Z,1012.76
2024-05-09T13:05:41.953Z,1012.72
2024-05-09T13:06:41.484Z,1012.72
2024-05-09T13:07:41.426Z,1012.71
2024-05-09T13:08:41.408Z,1012.70
2024-05-09T13:09:41.417Z,1012.70
2024-05-09T13:10:41.605Z,1012.65
2024-05-09T13:11:41.422Z,1012.63
2024-05-09T13:12:41.460Z,1012.61
2024-05-09T13:13:41.355Z,1012.60
2024-05-09T13:14:41.344Z,1012.62
2024-05-09T13:15:41.414Z,1012.62
2024-05-09T13:16:41.428Z,1012.62
2024-05-09T13:17:41.395Z,1012.60
2024-05-09T13:18:41.460Z,1012.62
2024-05-09T13:19:41.290Z,1012.60
2024-05-09T13:20:41.291Z,1012.59
2024-05-09T13:21:41.286Z,1012.54
2024-05-09T13:22:41.259Z,1012.53
2024-05-09T13:23:41.274Z,1012.52
2024-05-09T13:24:41.285Z,1012.53
2024-05-09T13:25:41.259Z,1012.52
2024-05-09T13:26:41.255Z,1012.53
2024-05-09T13:27:41.318Z,1012.51
2024-05-09T13:28:41.196Z,1012.50
2024-05-09T13:29:44.219Z,1012.48
2024-05-09T13:30:42.292Z,1012.45
2024-05-09T13:31:41.167Z,1012.45
2024-05-09T13:32:41.194Z,1012.45
2024-05-09T13:33:41.369Z,1012.42
2024-05-09T13:34:41.309Z,1012.40
2024-05-09T13:35:45.017Z,1012.38
2024-05-09T13:36:41.163Z,1012.38
2024-05-09T13:37:41.101Z,1012.36
2024-05-09T13:38:41.113Z,1012.31
2024-05-09T13:39:41.115Z,1012.29
2024-05-09T13:40:41.294Z,1012.28
2024-05-09T13:41:41.077Z,1012.26
2024-05-09T13:42:41.091Z,1012.26
2024-05-09T13:43:41.075Z,1012.27
2024-05-09T13:44:41.027Z,1012.27
2024-05-09T13:45:41.090Z,1012.24
2024-05-09T13:46:41.061Z,1012.22
2024-05-09T13:47:41.125Z,1012.21
2024-05-09T13:48:41.080Z,1012.19
2024-05-09T13:49:41.162Z,1012.19
2024-05-09T13:50:40.988Z,1012.18
2024-05-09T13:51:40.984Z,1012.18
2024-05-09T13:52:40.952Z,1012.18
2024-05-09T13:53:40.944Z,1012.16
2024-05-09T13:54:40.973Z,1012.11
2024-05-09T13:55:41.027Z,1012.10
2024-05-09T13:56:40.915Z,1012.15
2024-05-09T13:57:40.972Z,1012.03
2024-05-09T13:58:40.889Z,1012.05
2024-05-09T13:59:40.895Z,1012.05
2024-05-09T14:00:46.569Z,1012.05
2024-05-09T14:01:41.055Z,1012.03
2024-05-09T14:02:41.127Z,1012.02
2024-05-09T14:03:41.081Z,1012.01
2024-05-09T14:04:40.989Z,1012.04
2024-05-09T14:05:40.980Z,1011.99
2024-05-09T14:06:40.851Z,1011.95
2024-05-09T14:07:40.785Z,1011.96
2024-05-09T14:08:40.823Z,1011.99
2024-05-09T14:09:40.827Z,1012.01
2024-05-09T14:10:40.796Z,1012.00
2024-05-09T14:11:40.790Z,1011.97
2024-05-09T14:12:40.808Z,1011.93
2024-05-09T14:13:40.724Z,1011.93
2024-05-09T14:14:40.714Z,1011.90
2024-05-09T14:15:40.826Z,1011.91
2024-05-09T14:16:40.910Z,1011.90
2024-05-09T14:17:40.753Z,1011.91
2024-05-09T14:18:40.711Z,1011.88
2024-05-09T14:19:40.686Z,1011.85
2024-05-09T14:20:40.733Z,1011.82
2024-05-09T14:21:40.685Z,1011.79
2024-05-09T14:22:40.674Z,1011.80
2024-05-09T14:23:40.634Z,1011.77
2024-05-09T14:24:40.687Z,1011.78
2024-05-09T14:25:42.785Z,1011.79
2024-05-09T14:26:40.617Z,1011.79
2024-05-09T14:27:40.624Z,1011.80
2024-05-09T14:28:40.620Z,1011.77
2024-05-09T14:29:40.554Z,1011.79
2024-05-09T14:30:40.613Z,1011.73
2024-05-09T14:31:40.711Z,1011.69
2024-05-09T14:32:40.594Z,1011.65
2024-05-09T14:33:40.626Z,1011.61
2024-05-09T14:34:40.649Z,1011.61
2024-05-09T14:35:40.486Z,1011.58
2024-05-09T14:36:40.518Z,1011.56
2024-05-09T14:37:40.463Z,1011.54
2024-05-09T14:38:40.476Z,1011.48
2024-05-09T14:39:40.578Z,1011.48
2024-05-09T14:40:43.617Z,1011.47
2024-05-09T14:41:40.456Z,1011.49
2024-05-09T14:42:40.491Z,1011.48
2024-05-09T14:43:40.459Z,1011.44
2024-05-09T14:44:40.401Z,1011.40
2024-05-09T14:45:40.477Z,1011.37
2024-05-09T14:46:40.398Z,1011.37
2024-05-09T14:47:40.671Z,1011.39
2024-05-09T14:48:40.450Z,1011.35
2024-05-09T14:49:40.400Z,1011.35
2024-05-09T14:50:41.015Z,1011.32
2024-05-09T14:51:40.359Z,1011.31
2024-05-09T14:52:40.316Z,1011.29
2024-05-09T14:53:40.318Z,1011.28
2024-05-09T14:54:40.360Z,1011.27
2024-05-09T14:55:41.476Z,1011.24
2024-05-09T14:56:40.276Z,1011.22
2024-05-09T14:57:40.297Z,1011.19
2024-05-09T14:58:40.246Z,1011.19
2024-05-09T14:59:40.252Z,1011.19
2024-05-09T15:00:43.244Z,1011.17
2024-05-09T15:01:40.322Z,1011.16
2024-05-09T15:02:40.254Z,1011.14
2024-05-09T15:03:40.283Z,1011.17
2024-05-09T15:04:40.309Z,1011.22
2024-05-09T15:05:40.263Z,1011.20
2024-05-09T15:06:40.235Z,1011.26
2024-05-09T15:07:40.186Z,1011.20
2024-05-09T15:08:40.176Z,1011.21
2024-05-09T15:09:40.193Z,1011.21
2024-05-09T15:10:40.344Z,1011.18
2024-05-09T15:11:40.274Z,1011.22
2024-05-09T15:12:40.148Z,1011.16
2024-05-09T15:13:40.148Z,1011.11
2024-05-09T15:14:40.140Z,1011.15
2024-05-09T15:15:40.122Z,1011.09
2024-05-09T15:16:40.063Z,1011.12
2024-05-09T15:17:40.153Z,1011.13
2024-05-09T15:18:43.130Z,1011.11
2024-05-09T15:19:40.234Z,1011.11
2024-05-09T15:20:40.185Z,1011.09
2024-05-09T15:21:40.048Z,1011.09
2024-05-09T15:22:39.999Z,1011.09
2024-05-09T15:23:40.002Z,1011.08
2024-05-09T15:24:42.018Z,1011.07
2024-05-09T15:25:40.003Z,1011.07
2024-05-09T15:26:39.960Z,1011.05
2024-05-09T15:27:39.991Z,1011.01
2024-05-09T15:28:39.947Z,1011.02
2024-05-09T15:29:39.926Z,1011.01
2024-05-09T15:30:42.047Z,1011.05
2024-05-09T15:31:39.963Z,1011.06
2024-05-09T15:32:39.990Z,1011.10
2024-05-09T15:33:40.062Z,1011.10
2024-05-09T15:34:39.936Z,1011.11
2024-05-09T15:35:40.082Z,1011.09
2024-05-09T15:36:41.788Z,1011.10
2024-05-09T15:37:39.883Z,1011.09
2024-05-09T15:38:39.864Z,1011.09
2024-05-09T15:39:39.965Z,1011.11
2024-05-09T15:40:40.975Z,1011.12
2024-05-09T15:41:39.844Z,1011.12
2024-05-09T15:42:41.785Z,1011.10
2024-05-09T15:43:39.860Z,1011.09
2024-05-09T15:44:39.775Z,1011.10
2024-05-09T15:45:40.847Z,1011.10
2024-05-09T15:46:39.856Z,1011.11
2024-05-09T15:47:39.836Z,1011.09
2024-05-09T15:48:42.719Z,1011.10
2024-05-09T15:49:39.959Z,1011.09
2024-05-09T15:50:41.927Z,1011.10
2024-05-09T15:51:39.777Z,1011.07
2024-05-09T15:52:39.688Z,1011.04
2024-05-09T15:53:39.722Z,1011.04
2024-05-09T15:54:39.714Z,1011.10
2024-05-09T15:55:39.681Z,1011.07
2024-05-09T15:56:39.693Z,1011.09
2024-05-09T15:57:39.658Z,1011.05
2024-05-09T15:58:39.631Z,1011.07
2024-05-09T15:59:39.630Z,1011.05
2024-05-09T16:00:42.476Z,1011.05
2024-05-09T16:01:39.744Z,1011.04
2024-05-09T16:02:39.795Z,1011.02
2024-05-09T16:03:39.720Z,1011.02
2024-05-09T16:04:39.651Z,1011.01
2024-05-09T16:05:40.451Z,1011.04
2024-05-09T16:06:39.580Z,1010.99
2024-05-09T16:07:39.573Z,1011.04
2024-05-09T16:08:39.556Z,1011.05
2024-05-09T16:09:39.637Z,1011.04
2024-05-09T16:10:41.365Z,1011.03
2024-05-09T16:11:39.696Z,1011.05
2024-05-09T16:12:39.595Z,1011.04
2024-05-09T16:13:39.524Z,1011.03
2024-05-09T16:14:39.486Z,1011.06
2024-05-09T16:15:39.547Z,1011.03
2024-05-09T16:16:39.671Z,1011.06
2024-05-09T16:17:39.496Z,1011.03
2024-05-09T16:18:39.912Z,1011.02
2024-05-09T16:19:39.419Z,1011.05
2024-05-09T16:20:41.747Z,1011.01
2024-05-09T16:21:39.432Z,1011.02
2024-05-09T16:22:39.373Z,1011.04
2024-05-09T16:23:39.395Z,1011.03
2024-05-09T16:24:39.454Z,1010.99
2024-05-09T16:25:39.356Z,1010.97
2024-05-09T16:26:39.368Z,1010.96
2024-05-09T16:27:39.467Z,1010.98
2024-05-09T16:28:39.422Z,1010.99
2024-05-09T16:29:39.300Z,1010.98
2024-05-09T16:30:39.911Z,1011.02
2024-05-09T16:31:39.297Z,1010.99
2024-05-09T16:32:39.315Z,1011.02
2024-05-09T16:33:39.393Z,1010.99
2024-05-09T16:34:39.279Z,1011.02
2024-05-09T16:35:39.374Z,1011.00
2024-05-09T16:36:39.307Z,1011.00
2024-05-09T16:37:39.222Z,1011.02
2024-05-09T16:38:39.227Z,1011.01
2024-05-09T16:39:39.228Z,1011.00
2024-05-09T16:40:41.130Z,1010.99
2024-05-09T16:41:39.175Z,1010.99
2024-05-09T16:42:39.255Z,1011.00